-10.68C
пасмурно
пасмурно
Дата и времяТемператураДавление, мм рт.ст.Влажность, %Осадки
МинимумМаксимум
14.04.2024 20:00-10.68C-10.68C75691пасмурно
14.04.2024 23:00-14.43C-11.93C75793пасмурно
15.04.2024 02:00-17.98C-15.55C75996переменная облачность
15.04.2024 05:00-20.07C-20.07C76297небольшая облачность
15.04.2024 08:00-14.91C-14.91C76282небольшая облачность
15.04.2024 11:00-10.51C-10.51C76368небольшая облачность
15.04.2024 14:00-7.74C-7.74C76475небольшая облачность
15.04.2024 17:00-6.74C-6.74C76578переменная облачность
15.04.2024 20:00-12.76C-12.76C76593переменная облачность
15.04.2024 23:00-12.75C-12.75C76592небольшая облачность
16.04.2024 02:00-11.27C-11.27C76590переменная облачность
16.04.2024 05:00-10.13C-10.13C76590переменная облачность
16.04.2024 08:00-3.53C-3.53C76585пасмурно
16.04.2024 11:000.56C0.56C76588облачно с прояснениями
16.04.2024 14:002.3C2.3C76487небольшая облачность
16.04.2024 17:002.44C2.44C76382небольшая облачность
16.04.2024 20:000.15C0.15C76283небольшая облачность
16.04.2024 23:00-1.08C-1.08C76286небольшая облачность
17.04.2024 02:00-1.64C-1.64C75988ясно
17.04.2024 05:00-0.97C-0.97C75888переменная облачность
17.04.2024 08:000.84C0.84C75690небольшой снег
17.04.2024 11:000.89C0.89C75599небольшой снег
17.04.2024 14:000.86C0.86C75498небольшой дождь
17.04.2024 17:001.34C1.34C754100пасмурно
17.04.2024 20:001.3C1.3C75599пасмурно
17.04.2024 23:001.29C1.29C75599пасмурно
18.04.2024 02:000.89C0.89C75599пасмурно
18.04.2024 05:001.12C1.12C75394пасмурно
18.04.2024 08:002.28C2.28C75094небольшой дождь
18.04.2024 11:002.82C2.82C74498дождь
18.04.2024 14:004.31C4.31C74499небольшой дождь
18.04.2024 17:003.73C3.73C74598небольшой дождь
18.04.2024 20:001.59C1.59C74796небольшой снег
18.04.2024 23:000.79C0.79C74997небольшой снег
19.04.2024 02:000.93C0.93C75397небольшой снег
19.04.2024 05:00-0.78C-0.78C75696небольшой снег
19.04.2024 08:00-1.87C-1.87C75985облачно с прояснениями
19.04.2024 11:00-0.19C-0.19C76189облачно с прояснениями
19.04.2024 14:00-0.16C-0.16C76380пасмурно
19.04.2024 17:00-1.28C-1.28C76580облачно с прояснениями
Дата и время наблюдения: 14.04.2024 19:40:18